ユジノサハリンスク の空港の天気 - METARとTAF

ホムトヴォ空港(ユジノサハリンスク) ( UHSS / UUS ) - ロシア ユジノサハリンスク
飛行場実況気象(Metar)
観測時間10/22 21:00 VLAT (10/22 11:00 UTC)
風向・風速南東 3m/s
視程10km以上
天気現象
全天の8割程度の雲 雲底高度 1220m
気温11℃
湿度87%
気圧1013hPa
METARUHSS 221100Z 13003MPS 9999 BKN040CB 11/09 Q1013 R19/250255 NOSIG RMK QFE758/1011
過去の天気等 Google飛行場航空写真 Wunderground天気予報

過去48時間のMETAR

飛行場予報(TAF)
発表時間: 10/22 17:45 VLAT (10/22 07:45 UTC)
予報対象時間: 22日19時 VLAT ~ 24日1時 VLAT
風向・風速南南東 3m/s
視程10km以上
全天の8割程度の積乱雲 雲底高度 910m
23日8時 VLAT ~ 23日10時 VLAT に徐々に
風向・風速南 8m/s
23日10時 VLAT ~ 23日22時 VLAT に一時的に
風向・風速南 10m/s 瞬間風速 15m/s
視程3100m
天気現象弱いしゅう雨
全天の8割程度の雲 雲底高度 340m
全天の8割程度の積乱雲 雲底高度 610m
TAF UHSS 220745Z 2209/2315 16003MPS 9999 BKN030CB
BECMG 2222/2224 17008MPS
TEMPO 2300/2312 17010G15MPS 3100 -SHRA BKN011 BKN020CB